Main page
METAR-TAF:

METAR-TAF

Airports :

Cairns, Australia

Cairns Airport

latitude: 16-53S, longitude: 145-45E, elevation: 3 m

Current weather observation

The report was made 15 minutes ago, at 02:30 UTC
Wind 14 kt from the North
Temperature 32°C
Humidity 75%
Pressure 1008 hPa
Visibility 10 km or more
Few clouds at a height of 2500 ft
Scattered clouds at a height of 30000 ft

METAR: YBCS 300230Z 36014KT 9999 FEW025 SCT300 32/27 Q1008 NOSIG

Time: 12:45 (02:45 UTC)

Forecast

The report was made 3 hours and 14 minutes ago, at 23:31 UTC
Forecast valid from 30 at 00 UTC to 30 at 24 UTC
Wind 14 kt from the North
Visibility 10 km or more
Few clouds at a height of 2800 ft
From 30 at 0900 UTC
Wind 6 kt from the West
Visibility 10 km or more
Few clouds at a height of 1800 ft

TAF: YBCS 292331Z 3000/3024 35014KT 9999 FEW028 FM300900 28006KT 9999 FEW018

Weather observations and forecasts of more than 4000 airports (METAR and TAF reports).

The available stations are represented by yellow and red dots on the map.

Hover mouse over dot to see the name of the station.

Then click to see weather observations and forecasts.

To change the map : click on the green buttons with a black cross to zoom in, on the green button with a dash to zoom out, or on the green arrows for adjacent maps.


METAR-TAF: